createdAt,value
2023-02-15T00:00:50.888Z,-2.81
2023-02-15T00:05:52.900Z,-2.90
2023-02-15T00:10:54.852Z,-2.92
2023-02-15T00:16:02.384Z,-2.92
2023-02-15T00:21:06.018Z,-2.88
2023-02-15T00:26:09.389Z,-2.88
2023-02-15T00:31:12.510Z,-3.03
2023-02-15T00:36:15.057Z,-2.85
2023-02-15T00:41:16.920Z,-3.05
2023-02-15T00:46:18.946Z,-3.00
2023-02-15T00:51:20.990Z,-2.94
2023-02-15T00:56:22.921Z,-2.86
2023-02-15T01:01:24.872Z,-2.84
2023-02-15T01:06:26.947Z,-2.90
2023-02-15T01:11:28.801Z,-2.93
2023-02-15T01:16:30.679Z,-2.97
2023-02-15T01:21:32.612Z,-3.03
2023-02-15T01:26:34.535Z,-3.17
2023-02-15T01:31:36.560Z,-3.04
2023-02-15T01:36:38.461Z,-3.06
2023-02-15T01:41:40.411Z,-3.04
2023-02-15T01:46:52.390Z,-3.04
2023-02-15T01:51:54.324Z,-2.95
2023-02-15T01:56:56.767Z,-2.89
2023-02-15T02:01:59.473Z,-2.94
2023-02-15T02:07:01.365Z,-3.02
2023-02-15T02:12:03.333Z,-3.12
2023-02-15T02:17:17.061Z,-3.04
2023-02-15T02:22:46.383Z,-2.99
2023-02-15T02:27:49.583Z,-3.07
2023-02-15T02:33:16.593Z,-3.03
2023-02-15T02:38:30.233Z,-3.09
2023-02-15T02:43:49.379Z,-3.07
2023-02-15T02:48:51.253Z,-3.23
2023-02-15T02:53:54.689Z,-3.19
2023-02-15T02:59:02.868Z,-3.14
2023-02-15T03:04:19.868Z,-3.07
2023-02-15T03:09:24.921Z,-3.02
2023-02-15T03:14:26.853Z,-3.05
2023-02-15T03:19:30.774Z,-3.18
2023-02-15T03:24:37.404Z,-3.34
2023-02-15T03:29:39.318Z,-3.42
2023-02-15T03:34:41.259Z,-3.53
2023-02-15T03:39:47.631Z,-3.57
2023-02-15T03:44:56.920Z,-3.41
2023-02-15T03:50:10.135Z,-3.47
2023-02-15T03:55:11.817Z,-3.68
2023-02-15T04:00:24.553Z,-3.60
2023-02-15T04:05:26.459Z,-3.68
2023-02-15T04:10:28.473Z,-3.63
2023-02-15T04:15:30.579Z,-3.65
2023-02-15T04:20:33.282Z,-3.71
2023-02-15T04:25:35.945Z,-3.62
2023-02-15T04:30:37.922Z,-3.70
2023-02-15T04:35:39.878Z,-3.78
2023-02-15T04:40:42.011Z,-3.88
2023-02-15T04:45:49.506Z,-3.83
2023-02-15T04:50:51.354Z,-3.89
2023-02-15T04:55:53.153Z,-3.79
2023-02-15T05:00:58.128Z,-3.95
2023-02-15T05:06:00.132Z,-3.94
2023-02-15T05:11:02.068Z,-3.98
2023-02-15T05:16:04.141Z,-4.08
2023-02-15T05:21:06.065Z,-4.03
2023-02-15T05:26:09.116Z,-3.93
2023-02-15T05:31:15.487Z,-3.94
2023-02-15T05:36:17.355Z,-3.90
2023-02-15T05:41:19.170Z,-3.89
2023-02-15T05:46:22.286Z,-4.09
2023-02-15T05:51:24.107Z,-3.88
2023-02-15T05:56:25.886Z,-3.83
2023-02-15T06:01:27.686Z,-3.86
2023-02-15T06:06:29.496Z,-3.81
2023-02-15T06:11:31.326Z,-3.94
2023-02-15T06:16:33.089Z,-3.94
2023-02-15T06:21:34.935Z,-3.94
2023-02-15T06:26:36.714Z,-3.84
2023-02-15T06:31:38.689Z,-3.93
2023-02-15T06:36:40.540Z,-3.74
2023-02-15T06:41:42.775Z,-3.57
2023-02-15T06:46:44.555Z,-3.54
2023-02-15T06:51:46.354Z,-3.52
2023-02-15T06:56:48.155Z,-3.42
2023-02-15T07:01:51.292Z,-3.06
2023-02-15T07:06:54.190Z,-2.93
2023-02-15T07:11:56.070Z,-3.07
2023-02-15T07:16:57.885Z,-3.03
2023-02-15T07:21:59.667Z,-3.08
2023-02-15T07:27:01.445Z,-3.10
2023-02-15T07:32:03.440Z,-3.27
2023-02-15T07:37:05.248Z,-3.33
2023-02-15T07:42:07.030Z,-3.27
2023-02-15T07:47:08.800Z,-3.34
2023-02-15T07:52:10.575Z,-3.44
2023-02-15T07:57:12.372Z,-3.41
2023-02-15T08:02:14.171Z,-3.05
2023-02-15T08:07:15.966Z,-3.30
2023-02-15T08:12:17.741Z,-3.03
2023-02-15T08:17:19.519Z,-2.82
2023-02-15T08:22:21.266Z,-2.91
2023-02-15T08:27:23.050Z,-2.63
2023-02-15T08:32:25.077Z,-2.74
2023-02-15T08:37:27.122Z,-2.93
2023-02-15T08:42:28.891Z,-2.76
2023-02-15T08:47:30.719Z,-2.93
2023-02-15T08:52:32.526Z,-2.91
2023-02-15T08:57:34.277Z,-2.83
2023-02-15T09:02:36.136Z,-2.72
2023-02-15T09:07:37.942Z,-2.33
2023-02-15T09:12:39.759Z,-2.43
2023-02-15T09:17:41.567Z,-2.61
2023-02-15T09:22:43.389Z,-2.35
2023-02-15T09:27:45.170Z,-2.13
2023-02-15T09:32:46.937Z,-2.72
2023-02-15T09:37:48.718Z,-2.67
2023-02-15T09:43:06.227Z,-2.41
2023-02-15T09:48:21.364Z,-2.66
2023-02-15T09:54:04.674Z,-2.64
2023-02-15T09:59:12.351Z,-2.90
2023-02-15T10:04:32.717Z,-2.63
2023-02-15T10:09:46.451Z,-2.66
2023-02-15T10:15:25.881Z,-2.62
2023-02-15T10:20:49.071Z,-2.55
2023-02-15T10:26:09.081Z,-2.62
2023-02-15T10:31:17.898Z,-2.57
2023-02-15T10:37:01.703Z,-2.50
2023-02-15T10:42:25.005Z,-2.51
2023-02-15T10:47:54.553Z,-2.55
2023-02-15T10:53:11.050Z,-2.39
2023-02-15T10:58:18.934Z,-2.41
2023-02-15T11:03:29.255Z,-2.53
2023-02-15T11:08:33.052Z,-2.77
2023-02-15T11:13:38.072Z,-2.92
2023-02-15T11:18:48.178Z,-3.03
2023-02-15T11:23:49.962Z,-3.00
2023-02-15T11:29:08.861Z,-2.93
2023-02-15T11:34:20.224Z,-2.91
2023-02-15T11:39:21.979Z,-2.65
2023-02-15T11:44:32.661Z,-2.74
2023-02-15T11:49:35.270Z,-2.87
2023-02-15T11:54:37.169Z,-2.92
2023-02-15T11:59:38.931Z,-2.90
2023-02-15T12:04:42.317Z,-2.78
2023-02-15T12:09:49.753Z,-2.70
2023-02-15T12:14:53.358Z,-2.83
2023-02-15T12:19:57.714Z,-2.88
2023-02-15T12:25:00.887Z,-2.65
2023-02-15T12:30:31.417Z,-2.64
2023-02-15T12:35:34.880Z,-2.74
2023-02-15T12:40:36.909Z,-2.79
2023-02-15T12:45:39.172Z,-2.72
2023-02-15T12:50:42.029Z,-2.69
2023-02-15T12:55:54.536Z,-2.90
2023-02-15T13:01:04.416Z,-2.94
2023-02-15T13:06:06.552Z,-2.89
2023-02-15T13:11:11.862Z,-2.83
2023-02-15T13:16:14.310Z,-2.97
2023-02-15T13:21:21.366Z,-2.91
2023-02-15T13:26:23.757Z,-2.81
2023-02-15T13:31:27.624Z,-2.86
2023-02-15T13:36:38.675Z,-2.81
2023-02-15T13:42:01.460Z,-2.94
2023-02-15T13:47:22.512Z,-3.04
2023-02-15T13:52:28.404Z,-3.05
2023-02-15T13:57:48.961Z,-3.27
2023-02-15T14:03:07.177Z,-3.19
2023-02-15T14:08:22.630Z,-3.25
2023-02-15T14:13:51.648Z,-3.34
2023-02-15T14:19:15.614Z,-3.53
2023-02-15T14:24:31.523Z,-3.42
2023-02-15T14:29:54.249Z,-3.62
2023-02-15T14:35:03.421Z,-3.40
2023-02-15T14:40:30.299Z,-3.45
2023-02-15T14:45:35.180Z,-3.36
2023-02-15T14:50:36.889Z,-3.33
2023-02-15T14:55:38.892Z,-3.40
2023-02-15T15:00:41.759Z,-3.34
2023-02-15T15:05:54.132Z,-3.33
2023-02-15T15:10:55.998Z,-3.27
2023-02-15T15:15:58.286Z,-3.36
2023-02-15T15:21:00.247Z,-3.41
2023-02-15T15:26:26.631Z,-3.46
2023-02-15T15:31:53.438Z,-3.37
2023-02-15T15:37:16.904Z,-3.57
2023-02-15T15:42:27.670Z,-3.51
2023-02-15T15:47:58.864Z,-3.63
2023-02-15T15:53:07.277Z,-3.65
2023-02-15T15:58:09.198Z,-3.73
2023-02-15T16:03:21.515Z,-3.80
2023-02-15T16:08:37.160Z,-3.75
2023-02-15T16:13:41.628Z,-3.94
2023-02-15T16:18:43.577Z,-3.74
2023-02-15T16:24:00.954Z,-3.76
2023-02-15T16:29:02.759Z,-3.79
2023-02-15T16:34:17.614Z,-4.06
2023-02-15T16:39:20.706Z,-3.95
2023-02-15T16:44:22.605Z,-3.95
2023-02-15T16:49:29.526Z,-4.23
2023-02-15T16:54:31.448Z,-4.13
2023-02-15T16:59:36.114Z,-4.12
2023-02-15T17:04:38.081Z,-4.23
2023-02-15T17:09:49.615Z,-4.20
2023-02-15T17:14:51.690Z,-4.22
2023-02-15T17:19:54.834Z,-4.23
2023-02-15T17:25:01.521Z,-4.25
2023-02-15T17:30:16.907Z,-4.11
2023-02-15T17:35:40.556Z,-4.17
2023-02-15T17:40:45.441Z,-4.25
2023-02-15T17:45:51.026Z,-4.39
2023-02-15T17:50:53.040Z,-4.40
2023-02-15T17:55:55.041Z,-4.46
2023-02-15T18:00:58.651Z,-4.29
2023-02-15T18:06:00.688Z,-4.46
2023-02-15T18:11:02.857Z,-4.28
2023-02-15T18:16:06.437Z,-4.29
2023-02-15T18:21:09.754Z,-4.31
2023-02-15T18:26:17.348Z,-4.42
2023-02-15T18:31:19.594Z,-4.34
2023-02-15T18:36:32.204Z,-4.27
2023-02-15T18:41:34.133Z,-4.38
2023-02-15T18:46:35.942Z,-4.34
2023-02-15T18:51:37.926Z,-4.38
2023-02-15T18:56:39.774Z,-4.36
2023-02-15T19:01:41.720Z,-4.41
2023-02-15T19:06:48.079Z,-4.42
2023-02-15T19:11:52.322Z,-4.37
2023-02-15T19:16:54.838Z,-4.24
2023-02-15T19:21:56.645Z,-4.43
2023-02-15T19:26:58.495Z,-4.35
2023-02-15T19:32:00.523Z,-4.67
2023-02-15T19:37:02.600Z,-4.41
2023-02-15T19:42:05.370Z,-4.42
2023-02-15T19:47:12.067Z,-4.34
2023-02-15T19:52:18.905Z,-4.13
2023-02-15T19:57:20.890Z,-4.11
2023-02-15T20:02:22.862Z,-4.26
2023-02-15T20:07:27.683Z,-4.27
2023-02-15T20:12:29.599Z,-4.32
2023-02-15T20:17:31.615Z,-4.35
2023-02-15T20:22:33.565Z,-4.22
2023-02-15T20:27:35.473Z,-4.25
2023-02-15T20:32:37.339Z,-3.98
2023-02-15T20:37:39.300Z,-3.94
2023-02-15T20:42:41.230Z,-3.90
2023-02-15T20:47:43.207Z,-3.94
2023-02-15T20:52:45.757Z,-4.00
2023-02-15T20:57:47.471Z,-4.02
2023-02-15T21:02:53.040Z,-4.14
2023-02-15T21:07:54.929Z,-4.13
2023-02-15T21:12:57.364Z,-4.39
2023-02-15T21:18:01.664Z,-4.46
2023-02-15T21:23:04.321Z,-4.34
2023-02-15T21:28:06.384Z,-4.21
2023-02-15T21:33:08.343Z,-4.28
2023-02-15T21:38:14.165Z,-4.31
2023-02-15T21:43:17.282Z,-4.35
2023-02-15T21:48:19.263Z,-4.50
2023-02-15T21:53:30.327Z,-4.59
2023-02-15T21:58:33.543Z,-4.39
2023-02-15T22:03:37.266Z,-4.50
2023-02-15T22:08:39.262Z,-4.49
2023-02-15T22:13:41.347Z,-4.65
2023-02-15T22:18:43.287Z,-4.57
2023-02-15T22:23:45.194Z,-4.56
2023-02-15T22:28:47.224Z,-4.50
2023-02-15T22:33:49.374Z,-4.38
2023-02-15T22:38:51.536Z,-4.39
2023-02-15T22:43:53.492Z,-4.39
2023-02-15T22:48:55.469Z,-4.57
2023-02-15T22:53:57.423Z,-4.63
2023-02-15T22:59:01.494Z,-4.54
2023-02-15T23:04:04.226Z,-4.45
2023-02-15T23:09:06.343Z,-4.37
2023-02-15T23:14:19.331Z,-4.61
2023-02-15T23:19:21.168Z,-4.60
2023-02-15T23:24:24.733Z,-4.57
2023-02-15T23:29:26.679Z,-4.56
2023-02-15T23:34:29.439Z,-4.44
2023-02-15T23:39:31.469Z,-4.50
2023-02-15T23:44:33.455Z,-4.58
2023-02-15T23:49:35.351Z,-4.61
2023-02-15T23:54:37.198Z,-4.61
2023-02-15T23:59:39.146Z,-4.63
